Time;durP1;ratioP1;P1;durP2;ratioP2;P2;SDS_P1;SDS_P2;PMS_P1;PMS_P2;Temp;Humidity;BMP_temperature;BMP_pressure;BME280_temperature;BME280_humidity;BME280_pressure;Samples;Min_cycle;Max_cycle;Signal;HPM_P1;HPM_P2
2022/03/12 00:00:11;;;;;;;14.68;8.30;;;;;;;;;;5301697;28;20077;-68
2022/03/12 00:02:42;;;;;;;14.27;8.10;;;;;;;;;;5302284;28;20036;-69
2022/03/12 00:05:14;;;;;;;12.40;8.50;;;;;;;;;;5301788;28;20030;-69
2022/03/12 00:07:46;;;;;;;14.68;8.70;;;;;;;;;;5301603;28;20266;-68
2022/03/12 00:10:22;;;;;;;16.77;8.50;;;;;;;;;;5302710;28;20355;-69
2022/03/12 00:12:53;;;;;;;14.35;8.90;;;;;;;;;;5300817;28;20104;-69
2022/03/12 00:15:25;;;;;;;16.65;9.77;;;;;;;;;;5302368;28;20016;-69
2022/03/12 00:17:56;;;;;;;13.52;8.13;;;;;;;;;;5301780;28;20024;-69
2022/03/12 00:20:32;;;;;;;19.40;9.88;;;;;;;;;;5301627;28;20020;-69
2022/03/12 00:23:05;;;;;;;16.38;9.40;;;;;;;;;;5302173;28;20042;-68
2022/03/12 00:25:38;;;;;;;14.68;8.80;;;;;;;;;;5302170;28;20016;-68
2022/03/12 00:28:11;;;;;;;13.57;8.68;;;;;;;;;;5301281;28;20035;-68
2022/03/12 00:30:45;;;;;;;12.57;8.73;;;;;;;;;;5302134;28;20038;-69
2022/03/12 00:33:18;;;;;;;14.38;9.20;;;;;;;;;;5302415;28;20028;-69
2022/03/12 00:35:50;;;;;;;14.10;9.05;;;;;;;;;;5300721;28;20028;-69
2022/03/12 00:38:22;;;;;;;12.43;8.57;;;;;;;;;;5301996;28;20105;-69
2022/03/12 00:40:54;;;;;;;17.00;9.52;;;;;;;;;;5300958;28;20427;-68
2022/03/12 00:43:25;;;;;;;14.13;8.98;;;;;;;;;;5302293;28;20028;-69
2022/03/12 00:45:56;;;;;;;14.98;9.55;;;;;;;;;;5301592;28;20030;-68
2022/03/12 00:48:27;;;;;;;14.73;9.02;;;;;;;;;;5302003;28;20298;-67
2022/03/12 00:50:58;;;;;;;16.00;9.07;;;;;;;;;;5305412;28;20288;-68
2022/03/12 00:53:30;;;;;;;14.82;9.48;;;;;;;;;;5306039;28;20087;-68
2022/03/12 00:56:02;;;;;;;14.27;9.88;;;;;;;;;;5305106;28;20024;-69
2022/03/12 00:58:35;;;;;;;14.63;9.60;;;;;;;;;;5305803;28;20020;-68
2022/03/12 01:01:06;;;;;;;15.48;9.75;;;;;;;;;;5305579;28;20023;-69
2022/03/12 01:03:37;;;;;;;12.80;8.77;;;;;;;;;;5304680;28;20028;-68
2022/03/12 01:06:12;;;;;;;13.90;9.00;;;;;;;;;;5305711;28;20020;-69
2022/03/12 01:08:43;;;;;;;16.60;8.75;;;;;;;;;;5304562;28;20269;-69
2022/03/12 01:11:14;;;;;;;14.35;9.80;;;;;;;;;;5305372;28;20401;-69
2022/03/12 01:13:45;;;;;;;13.93;9.45;;;;;;;;;;5305024;28;20020;-68
2022/03/12 01:16:17;;;;;;;15.38;9.48;;;;;;;;;;5304735;28;20297;-69
2022/03/12 01:18:48;;;;;;;15.05;9.85;;;;;;;;;;5305107;28;20095;-69
2022/03/12 01:21:20;;;;;;;16.23;9.50;;;;;;;;;;5305440;28;20046;-68
2022/03/12 01:23:51;;;;;;;15.93;9.52;;;;;;;;;;5304042;28;20054;-68
2022/03/12 01:26:22;;;;;;;16.73;10.10;;;;;;;;;;5305409;28;20008;-69
2022/03/12 01:28:54;;;;;;;15.43;9.68;;;;;;;;;;5304862;28;20016;-68
2022/03/12 01:31:25;;;;;;;17.05;9.98;;;;;;;;;;5304709;28;20016;-68
2022/03/12 01:33:56;;;;;;;14.40;9.15;;;;;;;;;;5304790;28;20095;-69
2022/03/12 01:36:27;;;;;;;15.60;9.95;;;;;;;;;;5305273;28;20305;-68
2022/03/12 01:38:59;;;;;;;23.52;10.90;;;;;;;;;;5303840;28;20270;-68
2022/03/12 01:41:31;;;;;;;18.55;10.98;;;;;;;;;;5305119;28;20378;-68
2022/03/12 01:44:02;;;;;;;16.13;11.20;;;;;;;;;;5304188;28;20020;-68
2022/03/12 01:46:35;;;;;;;19.02;11.25;;;;;;;;;;5304718;28;20016;-69
2022/03/12 01:49:08;;;;;;;13.40;10.23;;;;;;;;;;5304796;28;20023;-68
2022/03/12 01:51:40;;;;;;;15.32;10.93;;;;;;;;;;5304034;28;20089;-68
2022/03/12 01:54:12;;;;;;;15.80;11.63;;;;;;;;;;5304797;28;20410;-67
2022/03/12 01:56:45;;;;;;;16.42;10.18;;;;;;;;;;5304553;28;20441;-68
2022/03/12 01:59:16;;;;;;;16.17;10.50;;;;;;;;;;5303901;28;20020;-68
2022/03/12 02:01:52;;;;;;;17.67;11.18;;;;;;;;;;5304274;28;20096;-68
2022/03/12 02:04:24;;;;;;;15.45;10.63;;;;;;;;;;5304960;28;20054;-68
2022/03/12 02:06:58;;;;;;;15.07;10.80;;;;;;;;;;5303616;28;20054;-68
2022/03/12 02:09:29;;;;;;;15.45;10.05;;;;;;;;;;5304335;28;20016;-67
2022/03/12 02:12:00;;;;;;;15.77;9.57;;;;;;;;;;5303230;28;20545;-68
2022/03/12 02:14:31;;;;;;;15.32;10.48;;;;;;;;;;5304153;28;20020;-67
2022/03/12 02:17:09;;;;;;;15.00;10.60;;;;;;;;;;5304165;28;20029;-68
2022/03/12 02:19:40;;;;;;;14.73;9.68;;;;;;;;;;5303321;28;20012;-68
2022/03/12 02:22:15;;;;;;;15.38;9.82;;;;;;;;;;5303932;28;20027;-68
2022/03/12 02:24:46;;;;;;;14.43;9.70;;;;;;;;;;5303604;28;20020;-68
2022/03/12 02:27:18;;;;;;;15.25;9.73;;;;;;;;;;5303537;28;20020;-68
2022/03/12 02:29:51;;;;;;;14.38;9.52;;;;;;;;;;5303802;28;20261;-69
2022/03/12 02:32:23;;;;;;;14.57;10.23;;;;;;;;;;5304259;28;20019;-68
2022/03/12 02:34:56;;;;;;;13.70;9.50;;;;;;;;;;5302770;28;20016;-68
2022/03/12 02:37:33;;;;;;;12.85;9.35;;;;;;;;;;5303864;28;20028;-68
2022/03/12 02:40:09;;;;;;;19.27;9.98;;;;;;;;;;5302984;28;20203;-69
2022/03/12 02:42:40;;;;;;;16.30;9.48;;;;;;;;;;5303626;28;20045;-69
2022/03/12 02:45:11;;;;;;;16.67;10.27;;;;;;;;;;5303627;28;20095;-68
2022/03/12 02:47:43;;;;;;;12.65;9.60;;;;;;;;;;5302689;28;20020;-68
2022/03/12 02:50:14;;;;;;;13.93;9.00;;;;;;;;;;5303753;28;20091;-68
2022/03/12 02:52:46;;;;;;;14.80;9.80;;;;;;;;;;5303198;28;20016;-68
2022/03/12 02:55:18;;;;;;;14.80;8.98;;;;;;;;;;5302990;28;20028;-68
2022/03/12 02:57:50;;;;;;;15.88;8.73;;;;;;;;;;5303003;28;20873;-69
2022/03/12 03:00:21;;;;;;;12.48;9.63;;;;;;;;;;5303464;28;20016;-69
2022/03/12 03:02:56;;;;;;;11.73;8.95;;;;;;;;;;5302318;28;20035;-69
2022/03/12 03:05:36;;;;;;;12.85;9.05;;;;;;;;;;5303535;28;20097;-69
2022/03/12 03:08:09;;;;;;;14.35;9.27;;;;;;;;;;5302468;28;20358;-69
2022/03/12 03:10:41;;;;;;;15.20;10.05;;;;;;;;;;5302746;28;20012;-69
2022/03/12 03:13:16;;;;;;;16.13;11.00;;;;;;;;;;5302454;28;20047;-68
2022/03/12 03:15:48;;;;;;;15.05;10.68;;;;;;;;;;5301965;28;20069;-68
2022/03/12 03:18:21;;;;;;;14.48;9.90;;;;;;;;;;5303383;28;20042;-68
2022/03/12 03:20:53;;;;;;;18.35;10.00;;;;;;;;;;5302582;28;20463;-68
2022/03/12 03:23:26;;;;;;;14.70;9.23;;;;;;;;;;5302606;28;20126;-69
2022/03/12 03:25:59;;;;;;;13.40;8.80;;;;;;;;;;5302618;28;20026;-70
2022/03/12 03:28:31;;;;;;;14.93;9.48;;;;;;;;;;5302810;28;20019;-69
2022/03/12 03:31:05;;;;;;;14.98;9.38;;;;;;;;;;5302339;28;20024;-69
2022/03/12 03:33:36;;;;;;;12.77;8.30;;;;;;;;;;5302560;28;20370;-69
2022/03/12 03:36:07;;;;;;;12.25;8.13;;;;;;;;;;5302678;28;20032;-69
2022/03/12 03:38:38;;;;;;;13.48;8.07;;;;;;;;;;5301928;28;20120;-69
2022/03/12 03:41:10;;;;;;;11.18;7.90;;;;;;;;;;5302597;28;20027;-68
2022/03/12 03:43:44;;;;;;;13.02;8.45;;;;;;;;;;5301713;28;20028;-68
2022/03/12 03:46:17;;;;;;;11.82;7.88;;;;;;;;;;5302739;28;20126;-68
2022/03/12 03:48:49;;;;;;;16.50;8.45;;;;;;;;;;5302250;28;20520;-68
2022/03/12 03:51:21;;;;;;;11.70;8.82;;;;;;;;;;5302156;28;20510;-67
2022/03/12 03:53:52;;;;;;;10.88;8.68;;;;;;;;;;5302089;28;20151;-67
2022/03/12 03:56:23;;;;;;;11.52;8.10;;;;;;;;;;5302515;28;20432;-67
2022/03/12 03:58:54;;;;;;;13.65;7.93;;;;;;;;;;5301505;28;20435;-68
2022/03/12 04:01:26;;;;;;;11.07;7.32;;;;;;;;;;5302735;28;20053;-68
2022/03/12 04:03:57;;;;;;;11.40;8.15;;;;;;;;;;5302100;28;20020;-68
2022/03/12 04:06:29;;;;;;;9.75;7.60;;;;;;;;;;5301704;28;20053;-68
2022/03/12 04:09:00;;;;;;;11.40;7.47;;;;;;;;;;5302141;28;20083;-68
2022/03/12 04:11:33;;;;;;;9.50;6.93;;;;;;;;;;5301332;28;20105;-68
2022/03/12 04:14:05;;;;;;;10.05;7.00;;;;;;;;;;5302273;28;20266;-68
2022/03/12 04:16:37;;;;;;;11.40;7.60;;;;;;;;;;5302117;28;20028;-68
2022/03/12 04:19:08;;;;;;;9.73;6.68;;;;;;;;;;5301068;28;20019;-68
2022/03/12 04:21:40;;;;;;;8.15;6.22;;;;;;;;;;5302063;28;20024;-68
2022/03/12 04:24:12;;;;;;;8.13;6.07;;;;;;;;;;5303995;28;20035;-68
2022/03/12 04:26:44;;;;;;;7.97;5.40;;;;;;;;;;5305866;28;20016;-68
2022/03/12 04:29:16;;;;;;;7.75;5.85;;;;;;;;;;5306680;28;20520;-68
2022/03/12 04:31:47;;;;;;;6.32;5.30;;;;;;;;;;5305961;28;20073;-68
2022/03/12 04:34:18;;;;;;;7.65;4.82;;;;;;;;;;5305782;28;20016;-68
2022/03/12 04:36:49;;;;;;;6.60;4.25;;;;;;;;;;5305891;28;20118;-69
2022/03/12 04:39:20;;;;;;;6.90;4.70;;;;;;;;;;5306511;28;20258;-67
2022/03/12 04:41:52;;;;;;;7.55;5.00;;;;;;;;;;5304967;28;20065;-68
2022/03/12 04:44:23;;;;;;;7.95;5.03;;;;;;;;;;5306219;28;20416;-67
2022/03/12 04:46:54;;;;;;;6.90;5.46;;;;;;;;;;5305207;28;20142;-68
2022/03/12 04:49:25;;;;;;;6.10;4.88;;;;;;;;;;5306199;28;20028;-68
2022/03/12 04:51:58;;;;;;;7.00;4.86;;;;;;;;;;5305691;28;20078;-68
2022/03/12 04:54:32;;;;;;;6.88;4.72;;;;;;;;;;5305167;28;20107;-68
2022/03/12 04:57:04;;;;;;;8.63;4.90;;;;;;;;;;5305653;28;20035;-67
2022/03/12 04:59:35;;;;;;;8.07;5.38;;;;;;;;;;5306065;28;20320;-68
2022/03/12 05:02:11;;;;;;;6.43;4.72;;;;;;;;;;5305051;28;20024;-69
2022/03/12 05:04:42;;;;;;;7.82;4.80;;;;;;;;;;5305613;28;20095;-68
2022/03/12 05:07:14;;;;;;;7.30;4.72;;;;;;;;;;5305474;28;20103;-68
2022/03/12 05:09:46;;;;;;;6.78;4.22;;;;;;;;;;5304230;28;20258;-68
2022/03/12 05:12:17;;;;;;;5.95;4.65;;;;;;;;;;5305724;28;20474;-69
2022/03/12 05:14:50;;;;;;;6.40;4.43;;;;;;;;;;5304226;28;20020;-68
2022/03/12 05:17:24;;;;;;;4.72;3.45;;;;;;;;;;5305576;28;20031;-67
2022/03/12 05:19:55;;;;;;;5.35;3.53;;;;;;;;;;5304898;28;20065;-69
2022/03/12 05:22:26;;;;;;;6.47;3.90;;;;;;;;;;5304937;28;20024;-68
2022/03/12 05:24:57;;;;;;;5.13;3.67;;;;;;;;;;5305157;28;20117;-69
2022/03/12 05:27:29;;;;;;;6.18;3.22;;;;;;;;;;5305516;28;20266;-69
2022/03/12 05:30:00;;;;;;;6.03;3.40;;;;;;;;;;5304103;28;20293;-69
2022/03/12 05:32:31;;;;;;;5.85;4.28;;;;;;;;;;5304806;28;20368;-69
2022/03/12 05:35:02;;;;;;;6.38;4.45;;;;;;;;;;5304305;28;20405;-69
2022/03/12 05:37:36;;;;;;;5.22;4.53;;;;;;;;;;5304075;28;20301;-69
2022/03/12 05:40:09;;;;;;;7.18;5.07;;;;;;;;;;5304950;28;20431;-69
2022/03/12 05:42:42;;;;;;;6.70;5.07;;;;;;;;;;5304660;28;20390;-69
2022/03/12 05:45:14;;;;;;;7.05;4.93;;;;;;;;;;5304165;28;20458;-69
2022/03/12 05:47:46;;;;;;;6.40;4.80;;;;;;;;;;5304566;28;20455;-68
2022/03/12 05:50:17;;;;;;;5.50;4.43;;;;;;;;;;5304272;28;20114;-70
2022/03/12 05:52:49;;;;;;;6.63;5.10;;;;;;;;;;5304368;28;20050;-69
2022/03/12 05:55:21;;;;;;;7.72;4.90;;;;;;;;;;5304769;28;20099;-69
2022/03/12 05:57:52;;;;;;;7.40;4.70;;;;;;;;;;5303179;28;20115;-68
2022/03/12 06:00:23;;;;;;;6.18;4.63;;;;;;;;;;5304719;28;20411;-68
2022/03/12 06:02:58;;;;;;;7.07;5.03;;;;;;;;;;5304171;28;20111;-69
2022/03/12 06:05:31;;;;;;;6.70;5.32;;;;;;;;;;5303633;28;20483;-68
2022/03/12 06:08:03;;;;;;;5.13;4.13;;;;;;;;;;5304457;28;20027;-68
2022/03/12 06:10:35;;;;;;;7.75;5.30;;;;;;;;;;5304448;28;20016;-68
2022/03/12 06:13:08;;;;;;;6.93;5.43;;;;;;;;;;5303097;28;20090;-69
2022/03/12 06:15:40;;;;;;;6.38;5.10;;;;;;;;;;5304057;28;20061;-68
2022/03/12 06:18:11;;;;;;;7.32;5.05;;;;;;;;;;5303346;28;20024;-68
2022/03/12 06:20:43;;;;;;;7.15;4.88;;;;;;;;;;5304251;28;20215;-68
2022/03/12 06:23:14;;;;;;;7.82;5.03;;;;;;;;;;5304104;28;20087;-68
2022/03/12 06:25:46;;;;;;;6.10;5.10;;;;;;;;;;5302929;28;20020;-69
2022/03/12 06:28:17;;;;;;;6.35;4.90;;;;;;;;;;5304193;28;20123;-68
2022/03/12 06:30:52;;;;;;;8.10;5.30;;;;;;;;;;5303322;28;20056;-69
2022/03/12 06:33:24;;;;;;;7.50;5.32;;;;;;;;;;5303503;28;20467;-68
2022/03/12 06:35:57;;;;;;;5.15;4.43;;;;;;;;;;5303403;28;20032;-68
2022/03/12 06:38:28;;;;;;;6.13;4.57;;;;;;;;;;5304082;28;20420;-69
2022/03/12 06:41:00;;;;;;;6.43;4.20;;;;;;;;;;5302390;28;20081;-69
2022/03/12 06:43:32;;;;;;;6.80;4.30;;;;;;;;;;5303936;28;20450;-69
2022/03/12 06:46:03;;;;;;;6.93;5.32;;;;;;;;;;5302797;28;20028;-68
2022/03/12 06:48:35;;;;;;;6.78;4.78;;;;;;;;;;5302876;28;20028;-69
2022/03/12 06:51:06;;;;;;;7.97;5.15;;;;;;;;;;5303542;28;20023;-69
2022/03/12 06:53:37;;;;;;;7.15;4.60;;;;;;;;;;5302424;28;20095;-69
2022/03/12 06:56:09;;;;;;;5.57;4.20;;;;;;;;;;5303530;28;20077;-68
2022/03/12 06:58:41;;;;;;;5.45;4.40;;;;;;;;;;5303233;28;20039;-69
2022/03/12 07:01:12;;;;;;;5.93;4.50;;;;;;;;;;5302299;28;20095;-69
2022/03/12 07:03:43;;;;;;;6.80;4.40;;;;;;;;;;5303009;28;20794;-69
2022/03/12 07:06:14;;;;;;;5.20;4.03;;;;;;;;;;5303651;28;20051;-68
2022/03/12 07:08:46;;;;;;;6.20;4.05;;;;;;;;;;5302028;28;20027;-69
2022/03/12 07:11:18;;;;;;;10.27;4.75;;;;;;;;;;5302983;28;20075;-69
2022/03/12 07:13:49;;;;;;;6.60;4.25;;;;;;;;;;5302794;28;20478;-69
2022/03/12 07:16:20;;;;;;;5.78;3.53;;;;;;;;;;5302918;28;20081;-69
2022/03/12 07:18:51;;;;;;;5.20;3.92;;;;;;;;;;5302399;28;20032;-68
2022/03/12 07:21:24;;;;;;;5.25;4.05;;;;;;;;;;5302195;28;20044;-68
2022/03/12 07:23:55;;;;;;;5.30;3.50;;;;;;;;;;5302628;28;20016;-68
2022/03/12 07:26:26;;;;;;;4.82;3.53;;;;;;;;;;5303146;28;20023;-69
2022/03/12 07:28:59;;;;;;;7.57;4.05;;;;;;;;;;5301544;28;20451;-69
2022/03/12 07:31:30;;;;;;;5.78;4.10;;;;;;;;;;5302901;28;20027;-70
2022/03/12 07:34:01;;;;;;;5.05;4.07;;;;;;;;;;5302865;28;20008;-69
2022/03/12 07:36:33;;;;;;;6.12;4.10;;;;;;;;;;5301700;28;20028;-69
2022/03/12 07:39:04;;;;;;;5.07;3.75;;;;;;;;;;5302545;28;20016;-70
2022/03/12 07:41:35;;;;;;;4.95;3.38;;;;;;;;;;5302429;28;20038;-69
2022/03/12 07:44:09;;;;;;;5.18;3.75;;;;;;;;;;5301863;28;20023;-69
2022/03/12 07:46:40;;;;;;;4.43;3.10;;;;;;;;;;5302476;28;20584;-69
2022/03/12 07:49:12;;;;;;;4.13;3.20;;;;;;;;;;5302538;28;20090;-69
2022/03/12 07:51:43;;;;;;;6.10;4.00;;;;;;;;;;5301447;28;20289;-69
2022/03/12 07:54:15;;;;;;;4.53;3.70;;;;;;;;;;5302500;28;20012;-69
2022/03/12 07:56:46;;;;;;;5.65;3.38;;;;;;;;;;5301126;28;20020;-69
2022/03/12 07:59:18;;;;;;;5.13;3.28;;;;;;;;;;5302414;28;20483;-68
2022/03/12 08:01:49;;;;;;;5.30;2.83;;;;;;;;;;5301834;28;20081;-69
2022/03/12 08:04:20;;;;;;;5.63;3.72;;;;;;;;;;5301582;28;20012;-69
2022/03/12 08:06:52;;;;;;;5.43;3.80;;;;;;;;;;5301922;28;20026;-69
2022/03/12 08:09:23;;;;;;;5.35;3.53;;;;;;;;;;5302536;28;20028;-69
2022/03/12 08:11:54;;;;;;;4.93;3.67;;;;;;;;;;5300675;28;20044;-69
2022/03/12 08:14:26;;;;;;;6.57;3.33;;;;;;;;;;5302283;28;20621;-69
2022/03/12 08:16:57;;;;;;;7.30;3.40;;;;;;;;;;5301548;28;20386;-69
2022/03/12 08:19:28;;;;;;;4.78;3.60;;;;;;;;;;5301686;28;20101;-68
2022/03/12 08:22:03;;;;;;;3.63;3.13;;;;;;;;;;5301638;28;20278;-69
2022/03/12 08:24:35;;;;;;;4.85;3.58;;;;;;;;;;5301501;28;20106;-69
2022/03/12 08:27:07;;;;;;;5.03;3.40;;;;;;;;;;5301210;28;20443;-68
2022/03/12 08:29:39;;;;;;;6.82;3.67;;;;;;;;;;5301741;28;20539;-69
2022/03/12 08:32:10;;;;;;;5.45;3.67;;;;;;;;;;5301250;28;20016;-69
2022/03/12 08:34:42;;;;;;;5.28;3.92;;;;;;;;;;5301916;28;20012;-69
2022/03/12 08:37:13;;;;;;;7.53;3.33;;;;;;;;;;5301850;28;20035;-69
2022/03/12 08:39:44;;;;;;;4.97;3.13;;;;;;;;;;5300531;28;20020;-69
2022/03/12 08:42:15;;;;;;;5.10;3.45;;;;;;;;;;5302502;28;20028;-68
2022/03/12 08:44:47;;;;;;;5.18;3.30;;;;;;;;;;5301553;28;20266;-69
2022/03/12 08:47:18;;;;;;;9.10;3.08;;;;;;;;;;5301386;28;20028;-69
2022/03/12 08:49:49;;;;;;;6.07;3.33;;;;;;;;;;5301381;28;20420;-68
2022/03/12 08:52:20;;;;;;;5.78;2.50;;;;;;;;;;5302015;28;20115;-69
2022/03/12 08:54:51;;;;;;;4.80;2.85;;;;;;;;;;5300882;28;20086;-69
2022/03/12 08:57:23;;;;;;;5.37;2.43;;;;;;;;;;5301825;28;20708;-69
2022/03/12 08:59:54;;;;;;;3.67;1.85;;;;;;;;;;5300404;28;20266;-68
2022/03/12 09:02:25;;;;;;;3.38;1.60;;;;;;;;;;5301714;28;20297;-69
2022/03/12 09:04:57;;;;;;;4.55;1.25;;;;;;;;;;5301153;28;20020;-69
2022/03/12 09:07:28;;;;;;;4.25;1.98;;;;;;;;;;5301275;28;20044;-69
2022/03/12 09:09:59;;;;;;;5.95;1.60;;;;;;;;;;5298339;28;20032;-69
2022/03/12 09:12:31;;;;;;;5.40;1.58;;;;;;;;;;5304146;28;20120;-68
2022/03/12 09:15:02;;;;;;;8.45;2.20;;;;;;;;;;5304568;28;20471;-68
2022/03/12 09:17:34;;;;;;;4.28;1.80;;;;;;;;;;5304710;28;20058;-69
2022/03/12 09:20:05;;;;;;;3.72;1.50;;;;;;;;;;5305196;28;20073;-69
2022/03/12 09:22:37;;;;;;;3.03;1.13;;;;;;;;;;5304314;28;20056;-69
2022/03/12 09:25:11;;;;;;;5.15;2.05;;;;;;;;;;5305018;28;20066;-68
2022/03/12 09:27:45;;;;;;;4.35;1.45;;;;;;;;;;5304899;28;20028;-69
2022/03/12 09:30:17;;;;;;;10.00;1.80;;;;;;;;;;5304428;28;20016;-68
2022/03/12 09:32:48;;;;;;;6.80;1.30;;;;;;;;;;5304710;28;20550;-69
2022/03/12 09:35:19;;;;;;;4.55;1.23;;;;;;;;;;5304259;28;20073;-69
2022/03/12 09:37:51;;;;;;;5.25;1.30;;;;;;;;;;5304386;28;20028;-69
2022/03/12 09:40:22;;;;;;;6.00;0.90;;;;;;;;;;5305089;28;20028;-68
2022/03/12 09:42:54;;;;;;;3.10;0.93;;;;;;;;;;5304012;28;20270;-68
2022/03/12 09:45:25;;;;;;;2.92;0.70;;;;;;;;;;5305286;28;20085;-68
2022/03/12 09:47:56;;;;;;;3.92;0.80;;;;;;;;;;5304380;28;20068;-69
2022/03/12 09:50:27;;;;;;;6.33;1.17;;;;;;;;;;5304156;28;20032;-68
2022/03/12 09:52:58;;;;;;;5.50;0.98;;;;;;;;;;5304289;28;20262;-69
2022/03/12 09:55:29;;;;;;;3.92;1.00;;;;;;;;;;5304680;28;20270;-70
2022/03/12 09:58:01;;;;;;;6.30;0.85;;;;;;;;;;5303689;28;20385;-68
2022/03/12 10:00:32;;;;;;;5.30;0.80;;;;;;;;;;5304444;28;20028;-69
2022/03/12 10:03:04;;;;;;;6.40;0.80;;;;;;;;;;5304095;28;20031;-69
2022/03/12 10:05:36;;;;;;;3.92;1.00;;;;;;;;;;5304574;28;20008;-68
2022/03/12 10:08:07;;;;;;;8.43;1.10;;;;;;;;;;5304509;28;20031;-68
2022/03/12 10:10:38;;;;;;;3.27;0.97;;;;;;;;;;5303427;28;20356;-68
2022/03/12 10:13:11;;;;;;;6.63;0.77;;;;;;;;;;5303899;28;20278;-68
2022/03/12 10:15:42;;;;;;;4.63;1.00;;;;;;;;;;5303920;28;20043;-68
2022/03/12 10:18:13;;;;;;;7.00;0.90;;;;;;;;;;5303337;28;20024;-67
2022/03/12 10:20:44;;;;;;;4.53;0.60;;;;;;;;;;5303800;28;20027;-68
2022/03/12 10:23:16;;;;;;;4.15;0.75;;;;;;;;;;5304255;28;20123;-68
2022/03/12 10:25:47;;;;;;;6.97;0.85;;;;;;;;;;5302564;28;20270;-67
2022/03/12 10:28:18;;;;;;;3.27;0.70;;;;;;;;;;5304243;28;20024;-68
2022/03/12 10:30:49;;;;;;;5.75;0.82;;;;;;;;;;5303612;28;20266;-67
2022/03/12 10:33:25;;;;;;;6.35;0.80;;;;;;;;;;5303401;28;20024;-67
2022/03/12 10:36:10;;;;;;;5.75;0.68;;;;;;;;;;5303555;28;20597;-68
2022/03/12 10:38:42;;;;;;;5.65;1.08;;;;;;;;;;5302965;28;20418;-69
2022/03/12 10:41:13;;;;;;;7.15;0.77;;;;;;;;;;5303727;28;20085;-69
2022/03/12 10:43:46;;;;;;;4.68;0.70;;;;;;;;;;5303065;28;20023;-69
2022/03/12 10:46:19;;;;;;;4.88;0.70;;;;;;;;;;5302592;28;20142;-70
2022/03/12 10:48:57;;;;;;;7.13;0.90;;;;;;;;;;5302776;28;20062;-69
2022/03/12 10:51:30;;;;;;;2.90;0.50;;;;;;;;;;5303397;28;20020;-69
2022/03/12 10:54:04;;;;;;;5.70;0.75;;;;;;;;;;5302617;28;20466;-68
2022/03/12 10:56:42;;;;;;;5.53;0.85;;;;;;;;;;5303096;28;20040;-68
2022/03/12 10:59:14;;;;;;;2.97;0.50;;;;;;;;;;5302819;28;20020;-69
2022/03/12 11:01:56;;;;;;;4.88;0.70;;;;;;;;;;5302119;28;20412;-69
2022/03/12 11:04:29;;;;;;;4.40;0.65;;;;;;;;;;5303616;28;20069;-69
2022/03/12 11:07:20;;;;;;;7.47;0.80;;;;;;;;;;5302268;28;20023;-69
2022/03/12 11:09:54;;;;;;;6.18;0.70;;;;;;;;;;5302536;28;20190;-69
2022/03/12 11:12:29;;;;;;;3.53;0.88;;;;;;;;;;5302991;28;20056;-69
2022/03/12 11:15:14;;;;;;;3.83;0.75;;;;;;;;;;5301008;28;20029;-69
2022/03/12 11:17:49;;;;;;;5.45;0.80;;;;;;;;;;5300623;28;20035;-69
2022/03/12 11:20:22;;;;;;;3.55;0.50;;;;;;;;;;5302749;28;20043;-69
2022/03/12 11:23:09;;;;;;;3.10;0.50;;;;;;;;;;5301605;28;20028;-69
2022/03/12 11:26:04;;;;;;;4.78;0.70;;;;;;;;;;5302264;28;20012;-69
2022/03/12 11:28:36;;;;;;;8.27;0.70;;;;;;;;;;5301838;28;20122;-67
2022/03/12 11:31:07;;;;;;;4.45;0.60;;;;;;;;;;5302626;28;20020;-67
2022/03/12 11:33:39;;;;;;;4.05;0.93;;;;;;;;;;5302034;28;20024;-67
2022/03/12 11:36:10;;;;;;;4.20;0.50;;;;;;;;;;5301415;28;20020;-68
2022/03/12 11:38:49;;;;;;;8.82;0.90;;;;;;;;;;5302498;28;20061;-67
2022/03/12 11:41:27;;;;;;;5.63;0.45;;;;;;;;;;5302879;28;20013;-69
2022/03/12 11:44:01;;;;;;;7.47;0.88;;;;;;;;;;5301665;28;20101;-68
2022/03/12 11:46:32;;;;;;;10.73;0.60;;;;;;;;;;5302488;28;20019;-69
2022/03/12 11:49:04;;;;;;;5.38;0.50;;;;;;;;;;5301626;28;20023;-68
2022/03/12 11:51:35;;;;;;;3.38;0.60;;;;;;;;;;5302287;28;20077;-69
2022/03/12 11:54:06;;;;;;;1.93;0.47;;;;;;;;;;5302333;28;20012;-68
2022/03/12 11:56:38;;;;;;;4.50;0.60;;;;;;;;;;5301272;28;20297;-67
2022/03/12 11:59:09;;;;;;;75.25;6.47;;;;;;;;;;5302057;28;20651;-67
2022/03/12 12:01:41;;;;;;;5.03;0.80;;;;;;;;;;5301977;28;20016;-68
2022/03/12 12:04:13;;;;;;;39.63;1.98;;;;;;;;;;5301388;28;20269;-67
2022/03/12 12:06:46;;;;;;;16.08;0.90;;;;;;;;;;5302193;28;20016;-68
2022/03/12 12:09:17;;;;;;;6.20;0.80;;;;;;;;;;5302533;28;20027;-69
2022/03/12 12:11:48;;;;;;;3.53;0.57;;;;;;;;;;5300929;28;20418;-69
2022/03/12 12:14:19;;;;;;;6.87;0.70;;;;;;;;;;5302337;28;20278;-69
2022/03/12 12:16:55;;;;;;;6.07;0.60;;;;;;;;;;5300925;28;20288;-69
2022/03/12 12:19:27;;;;;;;3.65;0.68;;;;;;;;;;5302622;28;20021;-69
2022/03/12 12:22:00;;;;;;;3.38;0.50;;;;;;;;;;5301754;28;20031;-68
2022/03/12 12:24:32;;;;;;;5.30;0.50;;;;;;;;;;5301143;28;20095;-67
2022/03/12 12:27:04;;;;;;;3.30;0.50;;;;;;;;;;5301852;28;20520;-68
2022/03/12 12:29:45;;;;;;;3.10;0.60;;;;;;;;;;5301926;28;20030;-69
2022/03/12 12:32:17;;;;;;;7.63;0.90;;;;;;;;;;5301325;28;20028;-69
2022/03/12 12:34:57;;;;;;;4.07;0.50;;;;;;;;;;5301455;28;20043;-69
2022/03/12 12:37:47;;;;;;;2.45;0.50;;;;;;;;;;5301883;28;20061;-68
2022/03/12 12:40:19;;;;;;;2.20;0.40;;;;;;;;;;5301491;28;20370;-68
2022/03/12 12:42:51;;;;;;;6.38;0.55;;;;;;;;;;5301356;28;20024;-68
2022/03/12 12:45:24;;;;;;;5.72;1.23;;;;;;;;;;5303390;28;20470;-69
2022/03/12 12:48:10;;;;;;;7.95;0.50;;;;;;;;;;5305492;28;20100;-70
2022/03/12 12:51:16;;;;;;;2.72;0.57;;;;;;;;;;5305806;28;20105;-68
2022/03/12 12:53:48;;;;;;;3.92;0.40;;;;;;;;;;5239396;28;20040;-68
2022/03/12 12:56:21;;;;;;;4.15;0.45;;;;;;;;;;5295779;28;20486;-68
2022/03/12 12:58:52;;;;;;;4.43;0.50;;;;;;;;;;5305188;28;20024;-67
2022/03/12 13:01:26;;;;;;;3.47;0.60;;;;;;;;;;5305705;28;20012;-68
2022/03/12 13:03:57;;;;;;;5.00;0.60;;;;;;;;;;5305180;28;20270;-68
2022/03/12 13:06:40;;;;;;;4.20;0.40;;;;;;;;;;5304907;28;20019;-68
2022/03/12 13:09:30;;;;;;;3.65;0.50;;;;;;;;;;5305387;28;20073;-68
2022/03/12 13:12:03;;;;;;;6.53;0.60;;;;;;;;;;5305117;28;20097;-68
2022/03/12 13:14:42;;;;;;;3.70;0.40;;;;;;;;;;5304420;28;20443;-68
2022/03/12 13:17:27;;;;;;;6.20;0.50;;;;;;;;;;5305364;28;20547;-68
2022/03/12 13:19:59;;;;;;;2.97;0.40;;;;;;;;;;5302742;28;20016;-68
2022/03/12 13:22:48;;;;;;;3.38;0.40;;;;;;;;;;5304666;28;20445;-68
2022/03/12 13:25:19;;;;;;;4.93;0.50;;;;;;;;;;5305254;28;20020;-71
2022/03/12 13:27:58;;;;;;;2.57;0.37;;;;;;;;;;5303688;28;20050;-68
2022/03/12 13:30:34;;;;;;;5.25;0.50;;;;;;;;;;5304701;28;20383;-68
2022/03/12 13:33:07;;;;;;;4.93;0.50;;;;;;;;;;5304832;28;20062;-68
2022/03/12 13:35:38;;;;;;;5.47;0.52;;;;;;;;;;5303614;28;20044;-68
2022/03/12 13:38:09;;;;;;;4.73;0.50;;;;;;;;;;5305044;28;20413;-68
2022/03/12 13:40:40;;;;;;;4.40;1.02;;;;;;;;;;5304594;28;20308;-68
2022/03/12 13:43:12;;;;;;;2.67;0.43;;;;;;;;;;5303873;28;20262;-67
2022/03/12 13:45:44;;;;;;;6.82;1.15;;;;;;;;;;5304090;28;20266;-67
2022/03/12 13:48:17;;;;;;;4.47;0.57;;;;;;;;;;5300427;28;20024;-68
2022/03/12 13:50:54;;;;;;;6.75;0.60;;;;;;;;;;5308714;28;20032;-68
2022/03/12 13:53:29;;;;;;;3.63;0.40;;;;;;;;;;5303185;28;20422;-67
2022/03/12 13:56:17;;;;;;;3.85;0.52;;;;;;;;;;5301926;28;20032;-68
2022/03/12 13:58:48;;;;;;;3.03;0.50;;;;;;;;;;5333268;27;20455;-69
2022/03/12 14:01:52;;;;;;;3.58;0.65;;;;;;;;;;5345750;27;20011;-67
2022/03/12 14:04:28;;;;;;;3.78;0.50;;;;;;;;;;5329861;27;20442;-67
2022/03/12 14:07:11;;;;;;;2.33;0.30;;;;;;;;;;5345754;27;20023;-68
2022/03/12 14:09:46;;;;;;;4.00;0.43;;;;;;;;;;5344895;27;20461;-67
2022/03/12 14:12:26;;;;;;;3.40;0.40;;;;;;;;;;5322958;27;20048;-67
2022/03/12 14:15:00;;;;;;;5.57;0.88;;;;;;;;;;5302404;28;20107;-69
2022/03/12 14:17:31;;;;;;;6.43;0.70;;;;;;;;;;5300954;28;20036;-68
2022/03/12 14:20:04;;;;;;;2.88;0.40;;;;;;;;;;5302863;28;20024;-68
2022/03/12 14:22:37;;;;;;;3.53;0.40;;;;;;;;;;5302867;28;20020;-67
2022/03/12 14:25:08;;;;;;;5.20;0.60;;;;;;;;;;5301836;28;20111;-67
2022/03/12 14:27:41;;;;;;;5.28;0.40;;;;;;;;;;5302470;28;20526;-68
2022/03/12 14:30:12;;;;;;;3.53;0.43;;;;;;;;;;5302906;28;20103;-68
2022/03/12 14:32:43;;;;;;;4.47;0.40;;;;;;;;;;5301671;28;20170;-68
2022/03/12 14:35:14;;;;;;;3.47;0.50;;;;;;;;;;5303052;28;20351;-68
2022/03/12 14:37:47;;;;;;;6.07;0.50;;;;;;;;;;5301361;28;20036;-67
2022/03/12 14:40:18;;;;;;;4.20;0.40;;;;;;;;;;5302991;28;20036;-67
2022/03/12 14:42:55;;;;;;;2.13;0.40;;;;;;;;;;5302070;28;20028;-68
2022/03/12 14:45:30;;;;;;;4.47;0.40;;;;;;;;;;5301898;28;20012;-69
2022/03/12 14:48:05;;;;;;;3.35;0.60;;;;;;;;;;5302431;28;20028;-68
2022/03/12 14:50:36;;;;;;;6.63;0.50;;;;;;;;;;5302228;28;20020;-67
2022/03/12 14:53:08;;;;;;;4.25;0.85;;;;;;;;;;5300801;28;20028;-69
2022/03/12 14:55:43;;;;;;;5.43;0.70;;;;;;;;;;5305265;28;20024;-68
2022/03/12 14:58:14;;;;;;;4.70;0.70;;;;;;;;;;5305864;28;20305;-68
2022/03/12 15:00:46;;;;;;;2.60;0.52;;;;;;;;;;5299684;28;20503;-68
2022/03/12 15:03:17;;;;;;;5.20;0.50;;;;;;;;;;5301705;28;20561;-68
2022/03/12 15:05:50;;;;;;;4.07;0.47;;;;;;;;;;5301375;28;20117;-67
2022/03/12 15:08:27;;;;;;;7.10;0.70;;;;;;;;;;5298057;28;20274;-67
2022/03/12 15:11:08;;;;;;;7.63;1.25;;;;;;;;;;5301090;28;20020;-67